sensor_id;sensor_type;location;lat;lon;timestamp;pressure;altitude;pressure_sealevel;temperature;humidity
21545;BME280;10933;50.754;11.508;2023-05-01T00:00:56;98829.84;;;2.27;100.00
21545;BME280;10933;50.754;11.508;2023-05-01T00:03:25;98824.50;;;2.27;100.00
21545;BME280;10933;50.754;11.508;2023-05-01T00:05:57;98833.16;;;2.23;100.00
21545;BME280;10933;50.754;11.508;2023-05-01T00:08:23;98818.88;;;2.17;100.00
21545;BME280;10933;50.754;11.508;2023-05-01T00:10:50;98815.22;;;2.12;100.00
21545;BME280;10933;50.754;11.508;2023-05-01T00:13:16;98813.41;;;2.05;100.00
21545;BME280;10933;50.754;11.508;2023-05-01T00:15:46;98816.09;;;1.99;100.00
21545;BME280;10933;50.754;11.508;2023-05-01T00:18:13;98804.44;;;2.00;100.00
21545;BME280;10933;50.754;11.508;2023-05-01T00:20:39;98802.59;;;2.00;100.00
21545;BME280;10933;50.754;11.508;2023-05-01T00:23:05;98793.56;;;2.01;100.00
21545;BME280;10933;50.754;11.508;2023-05-01T00:25:32;98791.13;;;2.00;100.00
21545;BME280;10933;50.754;11.508;2023-05-01T00:27:58;98799.09;;;2.00;100.00
21545;BME280;10933;50.754;11.508;2023-05-01T00:30:25;98788.97;;;2.15;100.00
21545;BME280;10933;50.754;11.508;2023-05-01T00:32:52;98765.66;;;2.17;100.00
21545;BME280;10933;50.754;11.508;2023-05-01T00:35:18;98773.50;;;2.05;100.00
21545;BME280;10933;50.754;11.508;2023-05-01T00:37:44;98765.75;;;2.04;100.00
21545;BME280;10933;50.754;11.508;2023-05-01T00:40:11;98767.03;;;1.95;100.00
21545;BME280;10933;50.754;11.508;2023-05-01T00:42:37;98764.41;;;1.88;100.00
21545;BME280;10933;50.754;11.508;2023-05-01T00:45:06;98755.81;;;1.86;100.00
21545;BME280;10933;50.754;11.508;2023-05-01T00:47:35;98754.41;;;1.84;100.00
21545;BME280;10933;50.754;11.508;2023-05-01T00:50:02;98746.09;;;1.73;100.00
21545;BME280;10933;50.754;11.508;2023-05-01T00:52:28;98745.50;;;1.65;100.00
21545;BME280;10933;50.754;11.508;2023-05-01T00:54:55;98744.31;;;1.61;100.00
21545;BME280;10933;50.754;11.508;2023-05-01T00:57:21;98736.53;;;1.66;100.00
21545;BME280;10933;50.754;11.508;2023-05-01T00:59:48;98734.41;;;1.74;100.00
21545;BME280;10933;50.754;11.508;2023-05-01T01:02:14;98722.94;;;1.81;100.00
21545;BME280;10933;50.754;11.508;2023-05-01T01:04:45;98722.16;;;1.73;100.00
21545;BME280;10933;50.754;11.508;2023-05-01T01:07:32;98716.09;;;1.66;100.00
21545;BME280;10933;50.754;11.508;2023-05-01T01:10:14;98707.81;;;1.81;100.00
21545;BME280;10933;50.754;11.508;2023-05-01T01:13:12;98692.13;;;1.98;100.00
21545;BME280;10933;50.754;11.508;2023-05-01T01:18:19;98698.41;;;1.79;100.00
21545;BME280;10933;50.754;11.508;2023-05-01T01:21:06;98682.13;;;1.68;100.00
21545;BME280;10933;50.754;11.508;2023-05-01T01:23:51;98683.56;;;1.64;100.00
21545;BME280;10933;50.754;11.508;2023-05-01T01:26:46;98676.44;;;1.58;100.00
21545;BME280;10933;50.754;11.508;2023-05-01T01:32:33;98669.06;;;1.60;100.00
21545;BME280;10933;50.754;11.508;2023-05-01T01:35:17;98664.19;;;1.57;100.00
21545;BME280;10933;50.754;11.508;2023-05-01T01:40:13;98662.59;;;1.50;100.00
21545;BME280;10933;50.754;11.508;2023-05-01T01:42:44;98654.41;;;1.51;100.00
21545;BME280;10933;50.754;11.508;2023-05-01T01:45:36;98646.09;;;1.72;100.00
21545;BME280;10933;50.754;11.508;2023-05-01T01:48:03;98645.16;;;1.60;100.00
21545;BME280;10933;50.754;11.508;2023-05-01T01:50:31;98641.31;;;1.50;100.00
21545;BME280;10933;50.754;11.508;2023-05-01T01:52:59;98643.00;;;1.44;100.00
21545;BME280;10933;50.754;11.508;2023-05-01T01:55:29;98632.19;;;1.39;100.00
21545;BME280;10933;50.754;11.508;2023-05-01T01:57:58;98632.41;;;1.37;100.00
21545;BME280;10933;50.754;11.508;2023-05-01T02:00:25;98627.53;;;1.34;100.00
21545;BME280;10933;50.754;11.508;2023-05-01T02:02:53;98621.25;;;1.29;100.00
21545;BME280;10933;50.754;11.508;2023-05-01T02:05:21;98609.59;;;1.30;100.00
21545;BME280;10933;50.754;11.508;2023-05-01T02:07:50;98601.03;;;1.28;100.00
21545;BME280;10933;50.754;11.508;2023-05-01T02:10:18;98599.81;;;1.24;100.00
21545;BME280;10933;50.754;11.508;2023-05-01T02:12:47;98584.69;;;1.24;100.00
21545;BME280;10933;50.754;11.508;2023-05-01T02:15:16;98575.28;;;1.22;100.00
21545;BME280;10933;50.754;11.508;2023-05-01T02:17:44;98569.38;;;1.20;100.00
21545;BME280;10933;50.754;11.508;2023-05-01T02:20:11;98557.34;;;1.17;100.00
21545;BME280;10933;50.754;11.508;2023-05-01T02:22:40;98539.38;;;1.12;100.00
21545;BME280;10933;50.754;11.508;2023-05-01T02:25:09;98528.72;;;1.19;100.00
21545;BME280;10933;50.754;11.508;2023-05-01T02:28:00;98518.47;;;1.23;100.00
21545;BME280;10933;50.754;11.508;2023-05-01T02:30:25;98501.59;;;1.10;100.00
21545;BME280;10933;50.754;11.508;2023-05-01T02:32:51;98502.03;;;1.07;100.00
21545;BME280;10933;50.754;11.508;2023-05-01T02:35:17;98488.69;;;1.14;100.00
21545;BME280;10933;50.754;11.508;2023-05-01T02:37:44;98475.22;;;1.15;100.00
21545;BME280;10933;50.754;11.508;2023-05-01T02:40:13;98471.38;;;1.11;100.00
21545;BME280;10933;50.754;11.508;2023-05-01T02:42:44;98462.22;;;1.07;100.00
21545;BME280;10933;50.754;11.508;2023-05-01T02:45:19;98455.72;;;1.03;100.00
21545;BME280;10933;50.754;11.508;2023-05-01T02:47:49;98451.03;;;0.99;100.00
21545;BME280;10933;50.754;11.508;2023-05-01T02:50:16;98442.25;;;0.98;100.00
21545;BME280;10933;50.754;11.508;2023-05-01T02:52:46;98429.63;;;0.94;100.00
21545;BME280;10933;50.754;11.508;2023-05-01T02:55:13;98416.13;;;0.95;100.00
21545;BME280;10933;50.754;11.508;2023-05-01T02:57:39;98395.50;;;0.97;100.00
21545;BME280;10933;50.754;11.508;2023-05-01T03:00:06;98393.00;;;1.02;100.00
21545;BME280;10933;50.754;11.508;2023-05-01T03:02:35;98376.16;;;1.15;100.00
21545;BME280;10933;50.754;11.508;2023-05-01T03:05:01;98369.84;;;1.09;100.00
21545;BME280;10933;50.754;11.508;2023-05-01T03:07:27;98359.53;;;1.20;100.00
21545;BME280;10933;50.754;11.508;2023-05-01T03:10:04;98355.53;;;1.10;100.00
21545;BME280;10933;50.754;11.508;2023-05-01T03:12:31;98348.88;;;1.01;100.00
21545;BME280;10933;50.754;11.508;2023-05-01T03:14:57;98347.47;;;0.99;100.00
21545;BME280;10933;50.754;11.508;2023-05-01T03:17:23;98335.22;;;0.98;100.00
21545;BME280;10933;50.754;11.508;2023-05-01T03:19:49;98338.78;;;0.92;100.00
21545;BME280;10933;50.754;11.508;2023-05-01T03:22:19;98341.91;;;0.82;100.00
21545;BME280;10933;50.754;11.508;2023-05-01T03:24:46;98333.94;;;0.82;100.00
21545;BME280;10933;50.754;11.508;2023-05-01T03:27:18;98319.28;;;0.79;100.00
21545;BME280;10933;50.754;11.508;2023-05-01T03:29:47;98324.41;;;0.74;100.00
21545;BME280;10933;50.754;11.508;2023-05-01T03:32:14;98306.06;;;0.73;100.00
21545;BME280;10933;50.754;11.508;2023-05-01T03:34:42;98299.13;;;0.72;100.00
21545;BME280;10933;50.754;11.508;2023-05-01T03:40:01;98272.59;;;0.72;100.00
21545;BME280;10933;50.754;11.508;2023-05-01T03:42:33;98261.97;;;0.72;100.00
21545;BME280;10933;50.754;11.508;2023-05-01T03:44:59;98248.19;;;0.81;100.00
21545;BME280;10933;50.754;11.508;2023-05-01T03:47:35;98235.28;;;0.85;100.00
21545;BME280;10933;50.754;11.508;2023-05-01T03:50:01;98226.16;;;0.81;100.00
21545;BME280;10933;50.754;11.508;2023-05-01T03:52:28;98227.19;;;0.80;100.00
21545;BME280;10933;50.754;11.508;2023-05-01T03:54:54;98217.59;;;0.79;100.00
21545;BME280;10933;50.754;11.508;2023-05-01T03:57:22;98218.19;;;0.81;100.00
21545;BME280;10933;50.754;11.508;2023-05-01T03:59:48;98216.56;;;0.80;100.00
21545;BME280;10933;50.754;11.508;2023-05-01T04:02:14;98214.94;;;0.79;100.00
21545;BME280;10933;50.754;11.508;2023-05-01T04:04:41;98210.00;;;0.82;100.00
21545;BME280;10933;50.754;11.508;2023-05-01T04:07:08;98195.00;;;0.88;100.00
21545;BME280;10933;50.754;11.508;2023-05-01T04:09:34;98193.09;;;0.95;100.00
21545;BME280;10933;50.754;11.508;2023-05-01T04:12:03;98196.00;;;0.94;100.00
21545;BME280;10933;50.754;11.508;2023-05-01T04:14:30;98193.09;;;0.95;100.00
21545;BME280;10933;50.754;11.508;2023-05-01T04:16:57;98188.38;;;0.97;100.00
21545;BME280;10933;50.754;11.508;2023-05-01T04:19:27;98177.59;;;1.10;100.00
21545;BME280;10933;50.754;11.508;2023-05-01T04:22:18;98180.13;;;1.05;100.00
21545;BME280;10933;50.754;11.508;2023-05-01T04:24:44;98174.94;;;1.10;100.00
21545;BME280;10933;50.754;11.508;2023-05-01T04:27:11;98181.44;;;1.14;100.00
21545;BME280;10933;50.754;11.508;2023-05-01T04:29:38;98172.56;;;1.21;100.00
21545;BME280;10933;50.754;11.508;2023-05-01T04:32:04;98175.16;;;1.27;100.00
21545;BME280;10933;50.754;11.508;2023-05-01T04:34:30;98168.19;;;1.26;100.00
21545;BME280;10933;50.754;11.508;2023-05-01T04:36:56;98172.97;;;1.36;100.00
21545;BME280;10933;50.754;11.508;2023-05-01T04:39:23;98165.84;;;1.48;100.00
21545;BME280;10933;50.754;11.508;2023-05-01T04:42:09;98163.34;;;1.53;100.00
21545;BME280;10933;50.754;11.508;2023-05-01T04:44:35;98164.41;;;1.64;100.00
21545;BME280;10933;50.754;11.508;2023-05-01T04:47:02;98166.97;;;1.70;100.00
21545;BME280;10933;50.754;11.508;2023-05-01T04:49:29;98166.19;;;1.82;100.00
21545;BME280;10933;50.754;11.508;2023-05-01T04:51:55;98176.13;;;1.86;100.00
21545;BME280;10933;50.754;11.508;2023-05-01T04:54:22;98180.78;;;1.91;100.00
21545;BME280;10933;50.754;11.508;2023-05-01T04:56:51;98185.50;;;2.00;100.00
21545;BME280;10933;50.754;11.508;2023-05-01T04:59:17;98191.91;;;2.11;100.00
21545;BME280;10933;50.754;11.508;2023-05-01T05:01:43;98187.97;;;2.37;100.00
21545;BME280;10933;50.754;11.508;2023-05-01T05:04:10;98206.13;;;2.40;100.00
21545;BME280;10933;50.754;11.508;2023-05-01T05:06:36;98197.25;;;2.58;100.00
21545;BME280;10933;50.754;11.508;2023-05-01T05:09:02;98205.09;;;2.76;100.00
21545;BME280;10933;50.754;11.508;2023-05-01T05:11:28;98207.97;;;2.86;100.00
21545;BME280;10933;50.754;11.508;2023-05-01T05:13:54;98205.34;;;3.27;100.00
21545;BME280;10933;50.754;11.508;2023-05-01T05:16:20;98222.81;;;3.34;100.00
21545;BME280;10933;50.754;11.508;2023-05-01T05:18:46;98220.91;;;3.75;100.00
21545;BME280;10933;50.754;11.508;2023-05-01T05:21:12;98215.78;;;4.19;100.00
21545;BME280;10933;50.754;11.508;2023-05-01T05:23:38;98232.13;;;4.39;100.00
21545;BME280;10933;50.754;11.508;2023-05-01T05:26:04;98252.38;;;4.52;100.00
21545;BME280;10933;50.754;11.508;2023-05-01T05:28:30;98273.41;;;4.65;100.00
21545;BME280;10933;50.754;11.508;2023-05-01T05:30:57;98295.13;;;5.07;100.00
21545;BME280;10933;50.754;11.508;2023-05-01T05:33:23;98341.38;;;5.08;100.00
21545;BME280;10933;50.754;11.508;2023-05-01T05:35:50;98353.28;;;5.77;100.00
21545;BME280;10933;50.754;11.508;2023-05-01T05:38:17;98386.38;;;6.10;100.00
21545;BME280;10933;50.754;11.508;2023-05-01T05:40:43;98389.47;;;7.09;100.00
21545;BME280;10933;50.754;11.508;2023-05-01T05:43:09;98416.81;;;7.91;100.00
21545;BME280;10933;50.754;11.508;2023-05-01T05:45:36;98458.94;;;7.85;100.00
21545;BME280;10933;50.754;11.508;2023-05-01T05:48:02;98512.19;;;7.61;100.00
21545;BME280;10933;50.754;11.508;2023-05-01T05:50:29;98509.13;;;8.95;100.00
21545;BME280;10933;50.754;11.508;2023-05-01T05:52:55;98510.28;;;9.55;100.00
21545;BME280;10933;50.754;11.508;2023-05-01T05:55:21;98545.81;;;9.62;100.00
21545;BME280;10933;50.754;11.508;2023-05-01T05:57:47;98575.97;;;10.05;100.00
21545;BME280;10933;50.754;11.508;2023-05-01T06:00:14;98595.56;;;10.61;100.00
21545;BME280;10933;50.754;11.508;2023-05-01T06:02:40;98627.41;;;10.03;100.00
21545;BME280;10933;50.754;11.508;2023-05-01T06:05:07;98637.88;;;10.81;100.00
21545;BME280;10933;50.754;11.508;2023-05-01T06:07:33;98671.31;;;9.73;100.00
21545;BME280;10933;50.754;11.508;2023-05-01T06:09:59;98654.59;;;10.78;100.00
21545;BME280;10933;50.754;11.508;2023-05-01T06:12:29;98663.25;;;10.80;100.00
21545;BME280;10933;50.754;11.508;2023-05-01T06:14:57;98701.53;;;9.95;100.00
21545;BME280;10933;50.754;11.508;2023-05-01T06:17:24;98655.88;;;11.60;100.00
21545;BME280;10933;50.754;11.508;2023-05-01T06:19:50;98614.41;;;12.96;100.00
21545;BME280;10933;50.754;11.508;2023-05-01T06:22:20;98633.41;;;12.09;100.00
21545;BME280;10933;50.754;11.508;2023-05-01T06:24:46;98608.47;;;12.46;100.00
21545;BME280;10933;50.754;11.508;2023-05-01T06:27:12;98592.22;;;14.07;100.00
21545;BME280;10933;50.754;11.508;2023-05-01T06:29:39;98630.03;;;14.17;100.00
21545;BME280;10933;50.754;11.508;2023-05-01T06:32:05;98706.78;;;14.69;100.00
21545;BME280;10933;50.754;11.508;2023-05-01T06:34:31;99319.63;;;12.73;100.00
21545;BME280;10933;50.754;11.508;2023-05-01T06:36:57;99421.63;;;14.59;100.00
21545;BME280;10933;50.754;11.508;2023-05-01T06:39:23;99540.63;;;14.06;100.00
21545;BME280;10933;50.754;11.508;2023-05-01T06:41:49;99553.97;;;14.93;100.00
21545;BME280;10933;50.754;11.508;2023-05-01T06:44:16;99574.25;;;14.26;100.00
21545;BME280;10933;50.754;11.508;2023-05-01T06:46:42;99562.81;;;14.54;100.00
21545;BME280;10933;50.754;11.508;2023-05-01T06:49:08;99591.84;;;14.64;100.00
21545;BME280;10933;50.754;11.508;2023-05-01T06:51:34;99563.78;;;12.75;100.00
21545;BME280;10933;50.754;11.508;2023-05-01T06:54:00;99525.13;;;12.27;100.00
21545;BME280;10933;50.754;11.508;2023-05-01T06:56:27;99506.94;;;12.80;100.00
21545;BME280;10933;50.754;11.508;2023-05-01T06:58:53;99536.59;;;14.04;100.00
21545;BME280;10933;50.754;11.508;2023-05-01T07:01:19;99571.56;;;13.39;100.00
21545;BME280;10933;50.754;11.508;2023-05-01T07:03:45;99567.09;;;14.70;100.00
21545;BME280;10933;50.754;11.508;2023-05-01T07:06:11;99574.06;;;14.92;100.00
21545;BME280;10933;50.754;11.508;2023-05-01T07:08:37;99590.50;;;13.29;100.00
21545;BME280;10933;50.754;11.508;2023-05-01T07:11:03;99555.78;;;13.21;100.00
21545;BME280;10933;50.754;11.508;2023-05-01T07:13:29;99516.50;;;13.13;100.00
21545;BME280;10933;50.754;11.508;2023-05-01T07:15:56;99501.38;;;13.33;100.00
21545;BME280;10933;50.754;11.508;2023-05-01T07:18:22;99538.22;;;14.90;100.00
21545;BME280;10933;50.754;11.508;2023-05-01T07:20:48;99541.84;;;15.19;100.00
21545;BME280;10933;50.754;11.508;2023-05-01T07:23:15;99562.53;;;15.15;100.00
21545;BME280;10933;50.754;11.508;2023-05-01T07:25:42;99548.00;;;14.91;100.00
21545;BME280;10933;50.754;11.508;2023-05-01T07:28:09;99561.91;;;15.28;100.00
21545;BME280;10933;50.754;11.508;2023-05-01T07:30:36;99586.31;;;16.89;100.00
21545;BME280;10933;50.754;11.508;2023-05-01T07:33:02;99587.25;;;16.55;100.00
21545;BME280;10933;50.754;11.508;2023-05-01T07:35:30;99603.72;;;16.93;100.00
21545;BME280;10933;50.754;11.508;2023-05-01T07:37:57;99600.59;;;17.61;100.00
21545;BME280;10933;50.754;11.508;2023-05-01T07:40:23;99617.41;;;17.68;100.00
21545;BME280;10933;50.754;11.508;2023-05-01T07:42:49;99614.28;;;16.46;100.00
21545;BME280;10933;50.754;11.508;2023-05-01T07:45:15;99601.09;;;18.14;100.00
21545;BME280;10933;50.754;11.508;2023-05-01T07:47:42;99608.22;;;18.75;100.00
21545;BME280;10933;50.754;11.508;2023-05-01T07:50:11;99606.78;;;18.64;100.00
21545;BME280;10933;50.754;11.508;2023-05-01T07:52:38;99596.69;;;19.78;100.00
21545;BME280;10933;50.754;11.508;2023-05-01T07:55:04;99602.31;;;19.95;100.00
21545;BME280;10933;50.754;11.508;2023-05-01T07:57:31;99610.16;;;20.73;100.00
21545;BME280;10933;50.754;11.508;2023-05-01T08:00:00;99605.75;;;19.65;100.00
21545;BME280;10933;50.754;11.508;2023-05-01T08:02:26;99610.13;;;19.66;100.00
21545;BME280;10933;50.754;11.508;2023-05-01T08:04:52;99596.81;;;19.73;100.00
21545;BME280;10933;50.754;11.508;2023-05-01T08:07:19;99588.38;;;18.97;100.00
21545;BME280;10933;50.754;11.508;2023-05-01T08:09:45;99576.56;;;18.28;100.00
21545;BME280;10933;50.754;11.508;2023-05-01T08:12:12;99574.28;;;18.90;100.00
21545;BME280;10933;50.754;11.508;2023-05-01T08:14:39;99570.72;;;18.48;100.00
21545;BME280;10933;50.754;11.508;2023-05-01T08:17:05;99574.69;;;17.96;100.00
21545;BME280;10933;50.754;11.508;2023-05-01T08:19:31;99558.75;;;19.63;100.00
21545;BME280;10933;50.754;11.508;2023-05-01T08:21:58;99585.63;;;20.68;100.00
21545;BME280;10933;50.754;11.508;2023-05-01T08:24:24;99579.69;;;22.47;99.57
21545;BME280;10933;50.754;11.508;2023-05-01T08:26:50;99575.69;;;23.33;94.58
21545;BME280;10933;50.754;11.508;2023-05-01T08:29:16;99576.97;;;24.11;83.59
21545;BME280;10933;50.754;11.508;2023-05-01T08:31:43;99581.25;;;24.78;80.37
21545;BME280;10933;50.754;11.508;2023-05-01T08:34:09;99579.16;;;23.01;82.82
21545;BME280;10933;50.754;11.508;2023-05-01T08:36:37;99576.44;;;23.84;81.73
21545;BME280;10933;50.754;11.508;2023-05-01T08:39:03;99561.78;;;23.92;83.80
21545;BME280;10933;50.754;11.508;2023-05-01T08:41:30;99561.00;;;24.86;77.75
21545;BME280;10933;50.754;11.508;2023-05-01T08:43:57;99553.88;;;25.21;78.19
21545;BME280;10933;50.754;11.508;2023-05-01T08:49:17;99552.00;;;25.26;71.32
21545;BME280;10933;50.754;11.508;2023-05-01T08:51:46;99554.06;;;25.97;68.56
21545;BME280;10933;50.754;11.508;2023-05-01T08:54:14;99552.50;;;26.27;61.02
21545;BME280;10933;50.754;11.508;2023-05-01T08:56:43;99543.28;;;24.99;69.24
21545;BME280;10933;50.754;11.508;2023-05-01T08:59:13;99552.63;;;24.70;61.80
21545;BME280;10933;50.754;11.508;2023-05-01T09:01:40;99537.81;;;26.39;63.90
21545;BME280;10933;50.754;11.508;2023-05-01T09:04:08;99528.59;;;26.82;64.39
21545;BME280;10933;50.754;11.508;2023-05-01T09:06:35;99522.75;;;26.68;63.97
21545;BME280;10933;50.754;11.508;2023-05-01T09:09:01;99530.16;;;25.89;60.15
21545;BME280;10933;50.754;11.508;2023-05-01T09:11:28;99514.25;;;27.12;58.17
21545;BME280;10933;50.754;11.508;2023-05-01T09:13:55;99509.31;;;28.21;58.70
21545;BME280;10933;50.754;11.508;2023-05-01T09:16:22;99515.78;;;28.29;51.82
21545;BME280;10933;50.754;11.508;2023-05-01T09:18:48;99510.91;;;27.80;47.36
21545;BME280;10933;50.754;11.508;2023-05-01T09:21:15;99507.97;;;29.44;49.09
21545;BME280;10933;50.754;11.508;2023-05-01T09:23:41;99499.81;;;29.92;43.01
21545;BME280;10933;50.754;11.508;2023-05-01T09:26:07;99496.03;;;31.17;42.43
21545;BME280;10933;50.754;11.508;2023-05-01T09:28:41;99500.13;;;28.40;43.85
21545;BME280;10933;50.754;11.508;2023-05-01T09:31:27;99474.63;;;27.46;51.72
21545;BME280;10933;50.754;11.508;2023-05-01T09:33:58;99479.94;;;25.71;49.34
21545;BME280;10933;50.754;11.508;2023-05-01T09:36:29;99478.03;;;25.59;51.22
21545;BME280;10933;50.754;11.508;2023-05-01T09:38:57;99469.06;;;25.78;53.68
21545;BME280;10933;50.754;11.508;2023-05-01T09:41:25;99466.69;;;27.45;48.83
21545;BME280;10933;50.754;11.508;2023-05-01T09:43:56;99456.41;;;26.91;50.32
21545;BME280;10933;50.754;11.508;2023-05-01T09:46:23;99452.09;;;27.67;54.81
21545;BME280;10933;50.754;11.508;2023-05-01T09:51:29;99451.44;;;27.97;44.08
21545;BME280;10933;50.754;11.508;2023-05-01T09:54:00;99444.13;;;27.66;47.52
21545;BME280;10933;50.754;11.508;2023-05-01T09:56:28;99444.72;;;27.55;50.43
21545;BME280;10933;50.754;11.508;2023-05-01T09:59:13;99451.03;;;29.27;47.50
21545;BME280;10933;50.754;11.508;2023-05-01T10:01:43;99437.13;;;28.18;43.84
21545;BME280;10933;50.754;11.508;2023-05-01T10:04:10;99434.41;;;27.14;44.16
21545;BME280;10933;50.754;11.508;2023-05-01T10:06:37;99444.09;;;26.69;42.51
21545;BME280;10933;50.754;11.508;2023-05-01T10:09:05;99437.03;;;27.88;42.81
21545;BME280;10933;50.754;11.508;2023-05-01T10:11:52;99436.97;;;29.13;38.24
21545;BME280;10933;50.754;11.508;2023-05-01T10:14:19;99426.22;;;30.26;43.73
21545;BME280;10933;50.754;11.508;2023-05-01T10:16:46;99427.88;;;29.90;36.61
21545;BME280;10933;50.754;11.508;2023-05-01T10:19:12;99422.69;;;29.14;39.34
21545;BME280;10933;50.754;11.508;2023-05-01T10:21:40;99411.56;;;30.36;39.46
21545;BME280;10933;50.754;11.508;2023-05-01T10:24:06;99418.72;;;29.86;40.51
21545;BME280;10933;50.754;11.508;2023-05-01T10:26:35;99409.25;;;29.98;39.79
21545;BME280;10933;50.754;11.508;2023-05-01T10:29:02;99403.66;;;29.16;38.92
21545;BME280;10933;50.754;11.508;2023-05-01T10:31:28;99399.97;;;29.05;39.80
21545;BME280;10933;50.754;11.508;2023-05-01T10:33:57;99410.22;;;29.01;43.10
21545;BME280;10933;50.754;11.508;2023-05-01T10:38:57;99397.72;;;28.58;38.09
21545;BME280;10933;50.754;11.508;2023-05-01T10:44:25;99384.63;;;27.60;41.71
21545;BME280;10933;50.754;11.508;2023-05-01T10:46:52;99386.31;;;28.10;44.26
21545;BME280;10933;50.754;11.508;2023-05-01T10:49:18;99373.66;;;28.12;45.91
21545;BME280;10933;50.754;11.508;2023-05-01T10:51:57;99370.63;;;27.52;38.59
21545;BME280;10933;50.754;11.508;2023-05-01T10:54:28;99367.59;;;28.30;41.15
21545;BME280;10933;50.754;11.508;2023-05-01T10:57:00;99364.53;;;27.20;41.25
21545;BME280;10933;50.754;11.508;2023-05-01T11:02:21;99352.56;;;25.60;43.98
21545;BME280;10933;50.754;11.508;2023-05-01T11:04:49;99355.59;;;24.43;53.72
21545;BME280;10933;50.754;11.508;2023-05-01T11:07:17;99345.72;;;23.69;54.48
21545;BME280;10933;50.754;11.508;2023-05-01T11:09:54;99333.75;;;23.07;59.29
21545;BME280;10933;50.754;11.508;2023-05-01T11:15:11;99319.28;;;23.43;63.93
21545;BME280;10933;50.754;11.508;2023-05-01T11:22:52;99321.81;;;25.30;51.22
21545;BME280;10933;50.754;11.508;2023-05-01T11:25:26;99314.56;;;25.26;56.68
21545;BME280;10933;50.754;11.508;2023-05-01T11:27:58;99330.41;;;25.72;44.42
21545;BME280;10933;50.754;11.508;2023-05-01T11:30:24;99323.56;;;25.22;46.41
21545;BME280;10933;50.754;11.508;2023-05-01T11:32:51;99313.47;;;24.06;51.93
21545;BME280;10933;50.754;11.508;2023-05-01T11:35:25;99312.34;;;23.70;50.03
21545;BME280;10933;50.754;11.508;2023-05-01T11:37:52;99307.63;;;23.01;53.25
21545;BME280;10933;50.754;11.508;2023-05-01T11:40:23;99300.31;;;23.17;53.01
21545;BME280;10933;50.754;11.508;2023-05-01T11:42:58;99304.72;;;23.43;53.47
21545;BME280;10933;50.754;11.508;2023-05-01T11:45:25;99301.53;;;23.08;50.44
21545;BME280;10933;50.754;11.508;2023-05-01T11:47:52;99301.41;;;22.29;53.64
21545;BME280;10933;50.754;11.508;2023-05-01T11:50:18;99293.34;;;22.66;53.28
21545;BME280;10933;50.754;11.508;2023-05-01T11:52:48;99290.28;;;22.88;52.69
21545;BME280;10933;50.754;11.508;2023-05-01T11:55:15;99285.59;;;23.01;51.43
21545;BME280;10933;50.754;11.508;2023-05-01T11:57:52;99288.59;;;22.33;56.78
21545;BME280;10933;50.754;11.508;2023-05-01T12:00:29;99283.59;;;21.85;62.27
21545;BME280;10933;50.754;11.508;2023-05-01T12:03:12;99289.81;;;21.94;67.10
21545;BME280;10933;50.754;11.508;2023-05-01T12:05:43;99285.50;;;21.85;57.84
21545;BME280;10933;50.754;11.508;2023-05-01T12:08:17;99285.59;;;21.97;62.13
21545;BME280;10933;50.754;11.508;2023-05-01T12:10:46;99288.63;;;22.04;57.79
21545;BME280;10933;50.754;11.508;2023-05-01T12:13:14;99280.78;;;22.23;59.59
21545;BME280;10933;50.754;11.508;2023-05-01T12:15:45;99280.56;;;22.28;56.46
21545;BME280;10933;50.754;11.508;2023-05-01T12:18:13;99280.25;;;22.00;56.76
21545;BME280;10933;50.754;11.508;2023-05-01T12:20:42;99282.03;;;21.76;63.99
21545;BME280;10933;50.754;11.508;2023-05-01T12:23:10;99283.44;;;21.82;65.30
21545;BME280;10933;50.754;11.508;2023-05-01T12:25:38;99282.88;;;21.29;56.00
21545;BME280;10933;50.754;11.508;2023-05-01T12:28:09;99279.97;;;21.34;59.60
21545;BME280;10933;50.754;11.508;2023-05-01T12:30:37;99273.03;;;21.20;60.46
21545;BME280;10933;50.754;11.508;2023-05-01T12:33:11;99280.50;;;21.10;61.12
21545;BME280;10933;50.754;11.508;2023-05-01T12:35:38;99272.03;;;21.33;65.31
21545;BME280;10933;50.754;11.508;2023-05-01T12:38:21;99272.03;;;21.33;61.03
21545;BME280;10933;50.754;11.508;2023-05-01T12:40:52;99267.38;;;21.92;67.82
21545;BME280;10933;50.754;11.508;2023-05-01T12:43:21;99271.78;;;21.85;62.02
21545;BME280;10933;50.754;11.508;2023-05-01T12:45:54;99260.81;;;21.55;60.86
21545;BME280;10933;50.754;11.508;2023-05-01T12:48:20;99258.06;;;21.55;61.25
21545;BME280;10933;50.754;11.508;2023-05-01T12:50:47;99262.72;;;21.63;70.71
21545;BME280;10933;50.754;11.508;2023-05-01T12:53:20;99260.03;;;21.46;59.56
21545;BME280;10933;50.754;11.508;2023-05-01T12:55:48;99263.47;;;21.72;60.16
21545;BME280;10933;50.754;11.508;2023-05-01T12:58:15;99265.25;;;21.39;60.29
21545;BME280;10933;50.754;11.508;2023-05-01T13:00:50;99265.53;;;21.46;58.09
21545;BME280;10933;50.754;11.508;2023-05-01T13:03:27;99264.59;;;21.71;58.11
21545;BME280;10933;50.754;11.508;2023-05-01T13:05:58;99256.25;;;21.21;60.87
21545;BME280;10933;50.754;11.508;2023-05-01T13:10:56;99248.78;;;21.98;58.94
21545;BME280;10933;50.754;11.508;2023-05-01T13:13:34;99266.03;;;21.78;60.23
21545;BME280;10933;50.754;11.508;2023-05-01T13:16:11;99244.91;;;21.69;61.31
21545;BME280;10933;50.754;11.508;2023-05-01T13:18:48;99242.38;;;21.35;63.81
21545;BME280;10933;50.754;11.508;2023-05-01T13:21:22;99239.97;;;21.16;61.95
21545;BME280;10933;50.754;11.508;2023-05-01T13:23:59;99239.06;;;20.95;75.34
21545;BME280;10933;50.754;11.508;2023-05-01T13:26:27;99237.97;;;20.87;70.62
21545;BME280;10933;50.754;11.508;2023-05-01T13:28:55;99238.03;;;20.35;68.61
21545;BME280;10933;50.754;11.508;2023-05-01T13:31:22;99240.59;;;20.75;67.17